Time;durP1;ratioP1;P1;durP2;ratioP2;P2;SDS_P1;SDS_P2;PMS_P1;PMS_P2;Temp;Humidity;BMP_temperature;BMP_pressure;BME280_temperature;BME280_humidity;BME280_pressure;Samples;Min_cycle;Max_cycle;Signal;HPM_P1;HPM_P2
2022/08/30 00:03:19;;;;;;;5.40;3.30;;;;;;;16.32;100.00;102148.81;5043400;28;20393;-73
2022/08/30 00:05:45;;;;;;;11.88;2.88;;;;;;;16.28;100.00;102149.63;5028197;28;20025;-74
2022/08/30 00:08:11;;;;;;;6.20;2.92;;;;;;;16.27;100.00;102154.03;5039343;28;20382;-73
2022/08/30 00:10:37;;;;;;;6.53;2.75;;;;;;;16.24;100.00;102150.47;5040081;28;20033;-74
2022/08/30 00:13:04;;;;;;;7.03;3.42;;;;;;;16.19;100.00;102145.94;5036483;28;20043;-74
2022/08/30 00:15:29;;;;;;;6.28;2.65;;;;;;;16.18;100.00;102141.53;5045037;28;20024;-74
2022/08/30 00:17:55;;;;;;;7.75;3.42;;;;;;;16.16;100.00;102137.06;5048570;28;20139;-73
2022/08/30 00:20:24;;;;;;;7.32;3.17;;;;;;;16.17;100.00;102136.19;5036898;28;20135;-73
2022/08/30 00:22:50;;;;;;;3.83;2.70;;;;;;;16.16;100.00;102135.28;5043761;28;20017;-72
2022/08/30 00:25:17;;;;;;;9.80;3.28;;;;;;;16.19;100.00;102122.03;5048427;28;20035;-72
2022/08/30 00:27:42;;;;;;;5.47;2.95;;;;;;;16.19;100.00;102126.47;5045729;28;20469;-73
2022/08/30 00:30:09;;;;;;;3.75;2.80;;;;;;;16.18;100.00;102133.56;5050326;28;20055;-73
2022/08/30 00:32:35;;;;;;;7.38;2.85;;;;;;;16.19;100.00;102135.31;5047833;28;20434;-73
2022/08/30 00:35:01;;;;;;;6.97;3.08;;;;;;;16.18;100.00;102133.56;5044807;28;20083;-73
2022/08/30 00:37:26;;;;;;;6.07;2.90;;;;;;;16.17;100.00;102126.47;5041640;28;20469;-72
2022/08/30 00:39:52;;;;;;;6.30;2.88;;;;;;;16.18;100.00;102138.88;5036758;28;20029;-72
2022/08/30 00:42:19;;;;;;;5.28;3.05;;;;;;;16.18;100.00;102146.84;5039562;28;20025;-74
2022/08/30 00:44:45;;;;;;;5.28;3.10;;;;;;;16.19;100.00;102137.97;5041463;28;20097;-73
2022/08/30 00:47:11;;;;;;;8.95;2.90;;;;;;;16.17;100.00;102142.38;5037933;28;20025;-73
2022/08/30 00:49:40;;;;;;;9.85;2.80;;;;;;;16.16;100.00;102134.41;5039105;28;20071;-73
2022/08/30 00:52:06;;;;;;;4.65;2.80;;;;;;;16.16;100.00;102137.94;5035765;28;20434;-73
2022/08/30 00:54:34;;;;;;;8.02;3.35;;;;;;;16.13;100.00;102135.25;5037430;28;20099;-73
2022/08/30 00:57:01;;;;;;;5.93;2.75;;;;;;;16.11;100.00;102131.66;5051236;28;20021;-74
2022/08/30 00:59:27;;;;;;;5.95;3.00;;;;;;;16.10;100.00;102137.88;5038828;28;20500;-73
2022/08/30 01:01:53;;;;;;;7.65;3.58;;;;;;;16.11;100.00;102136.09;5048371;28;20507;-74
2022/08/30 01:04:20;;;;;;;5.10;3.03;;;;;;;16.12;100.00;102132.56;5035214;28;20173;-73
2022/08/30 01:06:46;;;;;;;5.28;2.90;;;;;;;16.10;100.00;102127.25;5050233;28;20108;-73
2022/08/30 01:09:13;;;;;;;6.68;3.03;;;;;;;16.07;100.00;102134.25;5038988;28;20437;-73
2022/08/30 01:11:40;;;;;;;5.72;3.05;;;;;;;16.06;100.00;102128.06;5038881;28;20462;-73
2022/08/30 01:14:07;;;;;;;7.05;3.15;;;;;;;16.04;100.00;102135.13;5048226;28;20183;-73
2022/08/30 01:16:33;;;;;;;5.10;3.28;;;;;;;16.02;100.00;102136.88;5047236;28;20037;-73
2022/08/30 01:18:59;;;;;;;5.50;2.92;;;;;;;16.01;100.00;102140.38;5037826;28;20099;-74
2022/08/30 01:21:37;;;;;;;6.85;3.53;;;;;;;16.02;100.00;102147.50;5042943;28;20143;-73
2022/08/30 01:24:04;;;;;;;7.35;3.25;;;;;;;15.99;100.00;102145.69;5053518;28;20025;-73
2022/08/30 01:26:30;;;;;;;4.50;3.35;;;;;;;16.00;100.00;102149.22;5048334;28;20025;-73
2022/08/30 01:29:01;;;;;;;7.63;3.47;;;;;;;16.00;100.00;102154.53;5040182;28;20029;-73
2022/08/30 01:31:26;;;;;;;7.20;3.92;;;;;;;16.01;100.00;102145.69;5042731;28;20024;-73
2022/08/30 01:33:51;;;;;;;9.35;3.95;;;;;;;15.99;100.00;102145.69;5034640;28;20474;-74
2022/08/30 01:36:18;;;;;;;4.43;3.10;;;;;;;15.96;100.00;102139.41;5038239;28;20082;-73
2022/08/30 01:38:47;;;;;;;5.60;4.35;;;;;;;15.97;100.00;102144.75;5044195;28;20358;-72
2022/08/30 01:41:22;;;;;;;8.02;4.00;;;;;;;16.00;100.00;102143.91;5040618;28;20532;-72
2022/08/30 01:43:49;;;;;;;7.05;3.65;;;;;;;15.99;100.00;102142.09;5036984;28;20025;-73
2022/08/30 01:46:16;;;;;;;5.97;4.18;;;;;;;15.98;100.00;102151.84;5040145;28;20121;-73
2022/08/30 01:48:44;;;;;;;8.70;3.40;;;;;;;15.99;100.00;102142.09;5045363;28;20439;-73
2022/08/30 01:51:11;;;;;;;5.38;4.00;;;;;;;15.98;100.00;102140.34;5034281;28;20025;-73
2022/08/30 01:53:41;;;;;;;8.70;3.88;;;;;;;15.97;100.00;102138.56;5042090;28;20380;-73
2022/08/30 01:56:07;;;;;;;5.65;3.92;;;;;;;15.95;100.00;102140.28;5040459;28;20532;-74
2022/08/30 01:58:36;;;;;;;6.00;4.00;;;;;;;15.93;100.00;102131.41;5035784;28;20039;-73
2022/08/30 02:01:11;;;;;;;8.35;4.25;;;;;;;15.89;100.00;102135.78;5037685;28;20036;-73
2022/08/30 02:03:37;;;;;;;7.75;4.25;;;;;;;15.88;100.00;102133.09;5038504;28;20428;-74
2022/08/30 02:06:09;;;;;;;6.80;3.83;;;;;;;15.83;100.00;102136.56;5034918;28;20038;-74
2022/08/30 02:08:35;;;;;;;9.30;4.60;;;;;;;15.82;100.00;102140.09;5045946;28;20128;-74
2022/08/30 02:11:01;;;;;;;6.32;4.32;;;;;;;15.83;100.00;102141.00;5046470;28;20059;-74
2022/08/30 02:13:28;;;;;;;5.40;4.22;;;;;;;15.87;100.00;102141.94;5046068;28;20024;-74
2022/08/30 02:15:54;;;;;;;6.93;4.03;;;;;;;15.85;100.00;102139.25;5042766;28;20029;-74
2022/08/30 02:18:21;;;;;;;6.30;4.60;;;;;;;15.81;100.00;102138.31;5034141;28;20358;-74
2022/08/30 02:20:46;;;;;;;5.32;3.88;;;;;;;15.80;100.00;102139.19;5040348;28;20476;-73
2022/08/30 02:23:11;;;;;;;6.05;4.85;;;;;;;15.81;100.00;102133.00;5037767;28;20021;-73
2022/08/30 02:25:37;;;;;;;4.85;4.35;;;;;;;15.82;100.00;102133.91;5044796;28;20503;-74
2022/08/30 02:28:04;;;;;;;9.32;4.63;;;;;;;15.82;100.00;102136.56;5045052;28;20412;-74
2022/08/30 02:30:30;;;;;;;12.27;5.30;;;;;;;15.83;100.00;102131.28;5043369;28;20029;-73
2022/08/30 02:32:55;;;;;;;9.88;5.20;;;;;;;15.85;100.00;102144.56;5043490;28;20027;-73
2022/08/30 02:35:20;;;;;;;8.15;4.85;;;;;;;15.83;100.00;102136.56;5044522;28;20024;-74
2022/08/30 02:37:46;;;;;;;8.32;5.50;;;;;;;15.81;100.00;102133.00;5040428;28;20026;-73
2022/08/30 02:40:11;;;;;;;7.07;5.47;;;;;;;15.80;100.00;102130.31;5041844;28;20028;-73
2022/08/30 02:42:37;;;;;;;8.25;5.60;;;;;;;15.80;100.00;102119.69;5043374;28;20029;-73
2022/08/30 02:45:03;;;;;;;8.85;5.70;;;;;;;15.74;100.00;102125.78;5035237;28;20472;-73
2022/08/30 02:47:29;;;;;;;10.30;5.65;;;;;;;15.71;100.00;102120.44;5040135;28;20505;-73
2022/08/30 02:49:54;;;;;;;8.65;5.85;;;;;;;15.70;100.00;102123.94;5033685;28;20037;-73
2022/08/30 02:52:20;;;;;;;7.95;5.72;;;;;;;15.67;100.00;102118.59;5033301;28;20022;-73
2022/08/30 02:54:45;;;;;;;7.75;6.25;;;;;;;15.66;100.00;102116.81;5036001;28;20030;-73
2022/08/30 02:57:12;;;;;;;7.25;5.72;;;;;;;15.66;100.00;102119.47;5044381;28;20025;-73
2022/08/30 02:59:42;;;;;;;10.52;6.50;;;;;;;15.62;100.00;102118.50;5036516;28;20111;-73
2022/08/30 03:02:11;;;;;;;9.02;6.85;;;;;;;15.61;100.00;102129.09;5037660;28;20036;-73
2022/08/30 03:04:40;;;;;;;10.00;6.50;;;;;;;15.58;100.00;102124.63;5036963;28;20374;-73
2022/08/30 03:07:07;;;;;;;10.77;6.72;;;;;;;15.55;100.00;102124.59;5033751;28;20028;-74
2022/08/30 03:09:33;;;;;;;11.95;6.25;;;;;;;15.55;100.00;102131.66;5033333;28;20107;-74
2022/08/30 03:11:58;;;;;;;10.98;6.45;;;;;;;15.52;100.00;102125.44;5033146;28;20025;-74
2022/08/30 03:14:24;;;;;;;9.05;6.72;;;;;;;15.54;100.00;102121.91;5033788;28;20466;-73
2022/08/30 03:16:49;;;;;;;12.90;7.40;;;;;;;15.50;100.00;102116.56;5046971;28;20469;-74
2022/08/30 03:19:15;;;;;;;10.13;6.63;;;;;;;15.51;100.00;102122.75;5042887;28;20053;-73
2022/08/30 03:21:40;;;;;;;10.65;5.88;;;;;;;15.50;100.00;102105.03;5040315;28;20025;-74
2022/08/30 03:24:06;;;;;;;12.77;6.60;;;;;;;15.51;100.00;102117.44;5035731;28;20500;-74
2022/08/30 03:26:31;;;;;;;7.97;6.75;;;;;;;15.48;100.00;102120.94;5042070;28;20124;-73
2022/08/30 03:28:57;;;;;;;11.27;6.80;;;;;;;15.46;100.00;102106.78;5046915;28;20465;-73
2022/08/30 03:31:23;;;;;;;11.70;7.15;;;;;;;15.43;100.00;102104.06;5037092;28;20060;-73
2022/08/30 03:33:48;;;;;;;9.40;7.45;;;;;;;15.40;100.00;102109.31;5036774;28;20063;-75
2022/08/30 03:36:14;;;;;;;9.75;7.53;;;;;;;15.41;100.00;102108.44;5040027;28;20477;-74
2022/08/30 03:38:39;;;;;;;10.60;8.07;;;;;;;15.38;100.00;102105.72;5039563;28;20031;-74
2022/08/30 03:41:05;;;;;;;10.48;7.13;;;;;;;15.41;100.00;102108.44;5032622;28;20056;-74
2022/08/30 03:43:32;;;;;;;11.05;7.72;;;;;;;15.42;100.00;102102.25;5041371;28;20030;-74
2022/08/30 03:45:59;;;;;;;12.05;8.25;;;;;;;15.40;100.00;102109.31;5035928;28;20022;-73
2022/08/30 03:48:25;;;;;;;12.65;8.13;;;;;;;15.36;100.00;102107.47;5033223;28;20029;-73
2022/08/30 03:50:50;;;;;;;10.15;8.07;;;;;;;15.35;100.00;102118.94;5046350;28;20531;-74
2022/08/30 03:53:15;;;;;;;12.25;8.40;;;;;;;15.31;100.00;102112.72;5036552;28;20025;-73
2022/08/30 03:55:41;;;;;;;9.82;7.90;;;;;;;15.31;100.00;102104.75;5042133;28;20071;-74
2022/08/30 03:58:06;;;;;;;12.55;7.90;;;;;;;15.33;100.00;102110.09;5040131;28;20041;-74
2022/08/30 04:00:31;;;;;;;12.57;7.70;;;;;;;15.30;100.00;102107.34;5041931;28;20029;-75
2022/08/30 04:02:57;;;;;;;11.20;8.90;;;;;;;15.31;100.00;102112.72;5045064;28;20460;-74
2022/08/30 04:05:22;;;;;;;10.68;7.65;;;;;;;15.29;100.00;102106.47;5052839;28;20024;-73
2022/08/30 04:07:48;;;;;;;11.90;8.18;;;;;;;15.28;100.00;102106.44;5034544;28;20719;-73
2022/08/30 04:10:13;;;;;;;13.63;8.27;;;;;;;15.27;100.00;102105.53;5040528;28;20068;-73
2022/08/30 04:12:38;;;;;;;12.30;7.43;;;;;;;15.23;100.00;102105.47;5051445;28;20388;-73
2022/08/30 04:15:05;;;;;;;11.88;8.25;;;;;;;15.22;100.00;102106.34;5045836;28;20020;-73
2022/08/30 04:17:30;;;;;;;12.02;8.27;;;;;;;15.19;100.00;102099.22;5036963;28;20048;-72
2022/08/30 04:19:55;;;;;;;11.02;7.72;;;;;;;15.16;100.00;102101.81;5044211;28;20056;-72
2022/08/30 04:22:21;;;;;;;12.68;8.20;;;;;;;15.14;100.00;102101.78;5042707;28;20301;-73
2022/08/30 04:24:46;;;;;;;14.38;8.00;;;;;;;15.11;100.00;102099.09;5057118;28;20043;-74
2022/08/30 04:27:12;;;;;;;12.10;8.23;;;;;;;15.10;100.00;102099.97;5059839;28;20064;-74
2022/08/30 04:29:37;;;;;;;11.07;8.35;;;;;;;15.08;100.00;102101.66;5047378;28;20449;-73
2022/08/30 04:32:02;;;;;;;10.38;7.82;;;;;;;15.07;100.00;102099.00;5038194;28;20075;-74
2022/08/30 04:34:28;;;;;;;12.43;8.18;;;;;;;15.05;100.00;102091.03;5047591;28;20052;-74
2022/08/30 04:36:53;;;;;;;10.30;8.52;;;;;;;15.03;100.00;102100.72;5037994;28;20072;-73
2022/08/30 04:39:19;;;;;;;11.05;8.07;;;;;;;15.00;100.00;102098.91;5047449;28;20112;-74
2022/08/30 04:41:44;;;;;;;13.52;8.52;;;;;;;15.03;100.00;102111.31;5043900;28;20388;-74
2022/08/30 04:44:10;;;;;;;13.45;8.10;;;;;;;15.02;100.00;102114.81;5040391;28;20465;-74
2022/08/30 04:46:36;;;;;;;14.80;8.77;;;;;;;14.99;100.00;102117.44;5045551;28;20139;-74
2022/08/30 04:49:03;;;;;;;14.75;9.02;;;;;;;14.99;100.00;102120.97;5047248;28;20036;-74
2022/08/30 04:51:29;;;;;;;11.88;8.57;;;;;;;14.96;100.00;102122.66;5041673;28;20029;-74
2022/08/30 04:53:55;;;;;;;11.88;7.97;;;;;;;14.91;100.00;102119.06;5036542;28;20385;-73
2022/08/30 04:56:22;;;;;;;15.13;8.52;;;;;;;14.86;100.00;102126.00;5059046;28;20036;-73
2022/08/30 04:58:51;;;;;;;11.77;8.57;;;;;;;14.87;100.00;102133.06;5036853;28;20075;-73
2022/08/30 05:01:19;;;;;;;13.23;8.85;;;;;;;14.84;100.00;102134.81;5035937;28;20029;-72
2022/08/30 05:03:46;;;;;;;14.88;8.65;;;;;;;14.84;100.00;102141.88;5040726;28;20151;-74
2022/08/30 05:06:12;;;;;;;13.25;9.68;;;;;;;14.88;100.00;102140.16;5046212;28;20508;-74
2022/08/30 05:08:38;;;;;;;12.52;8.20;;;;;;;14.90;100.00;102144.63;5048977;28;20073;-69
2022/08/30 05:11:05;;;;;;;12.57;9.18;;;;;;;14.92;100.00;102145.56;5050527;28;20060;-72
2022/08/30 05:13:31;;;;;;;12.32;8.60;;;;;;;14.96;100.00;102143.84;5046991;28;20017;-71
2022/08/30 05:15:58;;;;;;;13.13;8.60;;;;;;;14.94;100.00;102150.91;5040903;28;20024;-74
2022/08/30 05:18:23;;;;;;;11.07;8.15;;;;;;;14.95;100.00;102155.34;5045877;28;20032;-73
2022/08/30 05:20:48;;;;;;;10.02;8.75;;;;;;;14.92;100.00;102153.53;5051233;28;20051;-73
2022/08/30 05:23:14;;;;;;;14.70;9.10;;;;;;;14.93;100.00;102163.25;5047247;28;20078;-73
2022/08/30 05:25:41;;;;;;;12.63;8.88;;;;;;;14.94;100.00;102154.44;5046944;28;20033;-74
2022/08/30 05:28:08;;;;;;;14.55;9.73;;;;;;;14.98;100.00;102158.06;5048314;28;20025;-74
2022/08/30 05:30:35;;;;;;;14.07;9.32;;;;;;;15.00;100.00;102159.88;5037339;28;20116;-73
2022/08/30 05:33:02;;;;;;;12.20;9.68;;;;;;;15.05;100.00;102159.94;5053924;28;20469;-74
2022/08/30 05:35:27;;;;;;;14.73;9.80;;;;;;;15.07;100.00;102163.53;5057705;28;20107;-73
2022/08/30 05:37:53;;;;;;;13.15;9.95;;;;;;;15.09;100.00;102160.91;5044728;28;20458;-75
2022/08/30 05:40:19;;;;;;;13.75;8.50;;;;;;;15.11;100.00;102169.75;5054237;28;20021;-75
2022/08/30 05:42:45;;;;;;;11.82;9.50;;;;;;;15.12;100.00;102163.59;5042482;28;20025;-75
2022/08/30 05:45:12;;;;;;;15.20;9.80;;;;;;;15.13;100.00;102168.06;5050516;28;20052;-74
2022/08/30 05:47:38;;;;;;;14.52;9.35;;;;;;;15.13;100.00;102162.75;5046025;28;20487;-75
2022/08/30 05:50:08;;;;;;;13.77;9.63;;;;;;;15.14;100.00;102165.44;5043621;28;20025;-74
2022/08/30 05:52:35;;;;;;;16.27;10.13;;;;;;;15.16;100.00;102158.38;5043551;28;20024;-74
2022/08/30 05:55:02;;;;;;;12.73;9.80;;;;;;;15.18;100.00;102161.97;5061615;28;20104;-75
2022/08/30 05:57:31;;;;;;;14.95;9.48;;;;;;;15.23;100.00;102154.09;5044745;28;21237;-73
2022/08/30 05:59:56;;;;;;;12.82;9.45;;;;;;;15.27;100.00;102155.03;5043295;28;20048;-74
2022/08/30 06:02:22;;;;;;;16.45;9.57;;;;;;;15.29;100.00;102158.63;5051784;28;20116;-73
2022/08/30 06:04:47;;;;;;;14.52;9.35;;;;;;;15.31;100.00;102156.88;5038503;28;20051;-73
2022/08/30 06:07:12;;;;;;;13.98;9.73;;;;;;;15.35;100.00;102166.69;5039753;28;20096;-73
2022/08/30 06:09:38;;;;;;;12.85;8.82;;;;;;;15.41;100.00;102168.53;5048798;28;20061;-73
2022/08/30 06:12:03;;;;;;;12.50;8.75;;;;;;;15.47;100.00;102173.97;5037176;28;20029;-73
2022/08/30 06:14:29;;;;;;;14.40;9.13;;;;;;;15.55;100.00;102171.47;5040376;28;20049;-73
2022/08/30 06:16:54;;;;;;;17.75;9.07;;;;;;;15.61;100.00;102168.91;5039560;28;20024;-73
2022/08/30 06:19:19;;;;;;;15.05;8.98;;;;;;;15.65;100.00;102162.78;5051401;28;20749;-74
2022/08/30 06:21:50;;;;;;;13.77;9.07;;;;;;;15.68;100.00;102169.03;5035305;28;20052;-73
2022/08/30 06:24:16;;;;;;;10.45;8.40;;;;;;;15.72;100.00;102164.69;5033998;28;20031;-73
2022/08/30 06:26:43;;;;;;;13.45;8.80;;;;;;;15.76;100.00;102170.91;5068878;28;20438;-73
2022/08/30 06:29:11;;;;;;;15.60;8.40;;;;;;;15.79;100.00;102171.88;5046982;28;20394;-73
2022/08/30 06:31:37;;;;;;;11.07;8.07;;;;;;;15.83;100.00;102171.09;5033555;28;20029;-73
2022/08/30 06:34:03;;;;;;;10.35;7.75;;;;;;;15.89;100.00;102166.75;5033834;28;20465;-73
2022/08/30 06:36:28;;;;;;;11.63;8.23;;;;;;;15.93;100.00;102164.16;5034363;28;20060;-73
2022/08/30 06:38:55;;;;;;;10.02;7.32;;;;;;;15.95;100.00;102162.44;5032032;28;20438;-73
2022/08/30 06:41:27;;;;;;;9.75;7.40;;;;;;;15.99;100.00;102163.34;5038851;28;20037;-73
2022/08/30 06:43:54;;;;;;;9.25;7.38;;;;;;;16.01;100.00;102164.28;5041498;28;20091;-73
2022/08/30 06:46:23;;;;;;;12.10;6.50;;;;;;;16.05;100.00;102160.81;5035605;28;20052;-74
2022/08/30 06:48:49;;;;;;;10.85;6.55;;;;;;;16.11;100.00;102160.88;5045831;28;20503;-74
2022/08/30 06:51:22;;;;;;;9.80;5.78;;;;;;;16.15;100.00;102167.13;5033588;28;20029;-74
2022/08/30 06:53:48;;;;;;;8.68;5.53;;;;;;;16.21;100.00;102168.97;5033513;28;20030;-73
2022/08/30 06:56:14;;;;;;;5.50;4.95;;;;;;;16.28;100.00;102171.75;5048132;28;20029;-73
2022/08/30 06:58:40;;;;;;;9.80;5.55;;;;;;;16.32;100.00;102167.38;5037578;28;20465;-73
2022/08/30 07:01:07;;;;;;;8.75;4.90;;;;;;;16.37;100.00;102155.03;5037244;28;20071;-74
2022/08/30 07:03:34;;;;;;;5.63;4.57;;;;;;;16.45;100.00;102153.38;5033507;28;20087;-73
2022/08/30 07:05:59;;;;;;;7.63;5.03;;;;;;;16.48;100.00;102153.44;5034562;28;20029;-74
2022/08/30 07:08:25;;;;;;;8.82;4.00;;;;;;;16.56;100.00;102156.16;5037224;28;20493;-73
2022/08/30 07:10:53;;;;;;;11.63;4.32;;;;;;;16.64;100.00;102158.94;5053483;28;20056;-74
2022/08/30 07:13:20;;;;;;;11.65;3.80;;;;;;;16.69;100.00;102151.91;5040712;28;20025;-74
2022/08/30 07:15:46;;;;;;;10.50;4.13;;;;;;;16.75;100.00;102157.28;5035196;28;20334;-73
2022/08/30 07:20:58;;;;;;;6.80;3.90;;;;;;;16.88;100.00;102160.13;5033332;28;20040;-74
2022/08/30 07:23:23;;;;;;;5.97;3.15;;;;;;;16.93;100.00;102155.75;5034625;28;20052;-74
2022/08/30 07:25:49;;;;;;;6.07;3.50;;;;;;;16.98;100.00;102159.38;5053288;28;20021;-74
2022/08/30 07:28:15;;;;;;;7.07;3.15;;;;;;;17.03;100.00;102155.88;5033641;28;20067;-74
2022/08/30 07:30:41;;;;;;;7.07;3.20;;;;;;;17.08;100.00;102157.69;5039607;28;20435;-74
2022/08/30 07:33:06;;;;;;;8.70;3.10;;;;;;;17.12;100.00;102168.41;5033295;28;20025;-73
2022/08/30 07:35:31;;;;;;;4.78;2.85;;;;;;;17.16;100.00;102172.88;5033580;28;20085;-73
2022/08/30 07:37:57;;;;;;;8.27;3.20;;;;;;;17.19;100.00;102178.22;5033422;28;20033;-74
2022/08/30 07:40:22;;;;;;;4.47;2.70;;;;;;;17.27;100.00;102169.41;5033514;28;20105;-75
2022/08/30 07:42:48;;;;;;;4.68;2.40;;;;;;;17.34;100.00;102173.94;5033355;28;20432;-75
2022/08/30 07:45:13;;;;;;;6.32;2.60;;;;;;;17.41;100.00;102172.22;5033022;28;20025;-74
2022/08/30 07:47:39;;;;;;;6.20;2.60;;;;;;;17.47;100.00;102178.50;5034226;28;20026;-74
2022/08/30 07:50:06;;;;;;;6.00;2.53;;;;;;;17.54;100.00;102176.78;5050686;28;20453;-73
2022/08/30 07:52:32;;;;;;;4.55;2.42;;;;;;;17.62;100.00;102179.50;5036233;28;20543;-74
2022/08/30 07:54:58;;;;;;;6.60;2.22;;;;;;;17.68;100.00;102179.56;5040833;28;20092;-74
2022/08/30 07:57:24;;;;;;;4.05;2.60;;;;;;;17.78;100.00;102185.84;5056411;28;20028;-74
2022/08/30 07:59:50;;;;;;;5.90;1.83;;;;;;;17.87;100.00;102183.28;5053462;28;20103;-75
2022/08/30 08:02:17;;;;;;;6.18;2.05;;;;;;;17.96;100.00;102186.03;5045511;28;20056;-74
2022/08/30 08:04:42;;;;;;;3.58;2.10;;;;;;;18.05;100.00;102187.88;5055137;28;20075;-74
2022/08/30 08:07:08;;;;;;;2.50;1.67;;;;;;;18.13;100.00;102187.94;5057214;28;20031;-75
2022/08/30 08:09:34;;;;;;;7.47;1.63;;;;;;;18.19;100.00;102183.53;5041692;28;20057;-73
2022/08/30 08:11:59;;;;;;;3.50;1.85;;;;;;;18.26;100.00;102200.47;5039660;28;20013;-73
2022/08/30 08:14:27;;;;;;;8.55;1.58;;;;;;;18.34;100.00;102192.53;5052581;28;20488;-73
2022/08/30 08:16:52;;;;;;;1.73;1.38;;;;;;;18.39;100.00;102193.41;5046965;28;20033;-72
2022/08/30 08:19:18;;;;;;;1.58;1.33;;;;;;;18.48;100.00;102184.59;5049698;28;20035;-74
2022/08/30 08:21:44;;;;;;;2.03;1.30;;;;;;;18.57;100.00;102191.72;5054341;28;20055;-73
2022/08/30 08:24:10;;;;;;;7.05;1.65;;;;;;;18.68;100.00;102190.03;5061762;28;20032;-73
2022/08/30 08:26:37;;;;;;;6.15;1.58;;;;;;;18.74;100.00;102192.69;5040235;28;20401;-73
2022/08/30 08:29:03;;;;;;;5.75;1.35;;;;;;;18.81;100.00;102197.16;5058401;28;20028;-74
2022/08/30 08:31:29;;;;;;;1.85;1.13;;;;;;;18.87;100.00;102189.19;5076307;28;20079;-75
2022/08/30 08:33:57;;;;;;;15.15;1.63;;;;;;;18.97;100.00;102200.81;5072814;28;20411;-73
2022/08/30 08:36:23;;;;;;;6.10;1.30;;;;;;;19.03;100.00;102191.94;5041459;28;20033;-73
2022/08/30 08:38:48;;;;;;;6.05;1.23;;;;;;;19.15;100.00;102186.66;5038894;28;20022;-74
2022/08/30 08:41:30;;;;;;;1.77;1.27;;;;;;;19.24;100.00;102187.56;5035707;28;20030;-73
2022/08/30 08:43:56;;;;;;;2.83;1.20;;;;;;;19.31;100.00;102181.34;5058229;28;20464;-73
2022/08/30 08:46:34;;;;;;;3.97;1.35;;;;;;;19.38;100.00;102193.81;5055509;28;20025;-73
2022/08/30 08:49:05;;;;;;;2.28;1.08;;;;;;;19.47;100.00;102188.47;5056094;28;20028;-73
2022/08/30 08:54:51;;;;;;;5.43;1.10;;;;;;;19.63;100.00;102201.81;5054576;28;20064;-73
2022/08/30 08:57:16;;;;;;;7.50;1.50;;;;;;;19.81;100.00;102190.31;5039884;28;20041;-74
2022/08/30 08:59:43;;;;;;;5.40;1.17;;;;;;;19.99;100.00;102189.41;5068672;28;20029;-73
2022/08/30 09:02:24;;;;;;;1.10;0.85;;;;;;;20.10;100.00;102190.25;5056561;28;20028;-75
2022/08/30 09:04:53;;;;;;;9.65;1.23;;;;;;;20.25;100.00;102197.38;5061239;28;20071;-75
2022/08/30 09:07:25;;;;;;;5.45;1.10;;;;;;;20.31;100.00;102204.50;5058548;28;20115;-75
2022/08/30 09:09:50;;;;;;;4.65;1.10;;;;;;;20.35;100.00;102198.25;5035780;28;20489;-75
2022/08/30 09:12:16;;;;;;;4.15;1.30;;;;;;;20.47;100.00;102200.00;5043549;28;20032;-75
2022/08/30 09:14:50;;;;;;;7.00;1.02;;;;;;;20.58;99.26;102194.59;5035971;28;20473;-74
2022/08/30 09:17:18;;;;;;;4.22;1.00;;;;;;;20.70;98.30;102189.25;5036110;28;20392;-74
2022/08/30 09:20:04;;;;;;;3.50;1.10;;;;;;;20.86;95.57;102196.34;5040482;28;20017;-74
2022/08/30 09:22:42;;;;;;;5.75;1.50;;;;;;;20.93;94.31;102193.59;5035756;28;20552;-74
2022/08/30 09:25:10;;;;;;;5.65;1.23;;;;;;;21.01;95.97;102190.00;5058429;28;20025;-74
2022/08/30 09:27:42;;;;;;;7.05;1.88;;;;;;;21.01;94.00;102198.03;5038042;28;20387;-74
2022/08/30 09:30:22;;;;;;;2.65;1.20;;;;;;;21.11;95.47;102196.19;5043685;28;20091;-73
2022/08/30 09:32:53;;;;;;;5.93;1.10;;;;;;;21.14;94.43;102188.13;5050535;28;20024;-73
2022/08/30 09:35:23;;;;;;;5.07;2.60;;;;;;;21.17;96.04;102190.78;5054939;28;20115;-74
2022/08/30 09:37:56;;;;;;;5.20;1.15;;;;;;;21.26;95.96;102188.97;5050417;28;20033;-74
2022/08/30 09:40:31;;;;;;;1.55;0.93;;;;;;;21.44;91.56;102187.94;5035722;28;20024;-75
2022/08/30 09:43:03;;;;;;;3.15;1.20;;;;;;;21.52;84.94;102192.34;5049532;28;20108;-74
2022/08/30 09:45:36;;;;;;;4.05;1.00;;;;;;;21.60;88.51;102195.00;5035226;28;20105;-75
2022/08/30 09:48:22;;;;;;;5.33;1.30;;;;;;;21.74;86.23;102192.19;5035285;28;20021;-74
2022/08/30 09:51:13;;;;;;;2.38;1.00;;;;;;;21.82;86.06;102193.03;5055719;28;20459;-74
2022/08/30 09:54:06;;;;;;;2.72;0.93;;;;;;;22.05;83.28;102197.28;5050028;28;20473;-72
2022/08/30 09:56:31;;;;;;;3.20;0.90;;;;;;;22.22;79.01;102195.31;5049687;28;20048;-73
2022/08/30 09:59:02;;;;;;;8.87;1.40;;;;;;;22.20;77.66;102196.25;5041822;28;20029;-74
2022/08/30 10:01:46;;;;;;;2.35;0.93;;;;;;;22.42;77.76;102194.25;5036080;28;20646;-74
2022/08/30 10:04:31;;;;;;;2.95;1.08;;;;;;;22.40;77.51;102198.75;5034970;28;20533;-74
2022/08/30 10:07:08;;;;;;;2.53;1.00;;;;;;;22.53;80.22;102189.66;5039384;28;20473;-72
2022/08/30 10:09:40;;;;;;;4.90;1.30;;;;;;;22.68;74.33;102190.34;5044887;28;20790;-73
2022/08/30 10:12:23;;;;;;;9.95;1.23;;;;;;;22.77;74.67;102187.56;5042209;28;20017;-73
2022/08/30 10:15:13;;;;;;;3.08;1.15;;;;;;;22.83;72.79;102190.19;5042195;28;20544;-73
2022/08/30 10:18:03;;;;;;;4.35;1.45;;;;;;;23.10;75.72;102196.09;5052009;28;20450;-68
2022/08/30 10:20:31;;;;;;;5.75;1.20;;;;;;;23.26;73.30;102194.06;5046771;28;20103;-69
2022/08/30 10:23:07;;;;;;;2.70;0.93;;;;;;;23.36;71.59;102193.03;5059423;28;20028;-69
2022/08/30 10:25:38;;;;;;;3.17;1.13;;;;;;;23.51;69.48;102189.22;5040311;28;20041;-75
2022/08/30 10:28:13;;;;;;;3.55;1.45;;;;;;;23.39;69.51;102186.72;5041135;28;20385;-75
2022/08/30 10:30:44;;;;;;;3.60;1.10;;;;;;;23.50;71.11;102195.50;5044890;28;20032;-74
2022/08/30 10:33:35;;;;;;;4.00;1.20;;;;;;;23.51;66.88;102197.28;5034003;28;20523;-74
2022/08/30 10:36:05;;;;;;;2.90;1.25;;;;;;;23.60;67.47;102193.53;5034828;28;20045;-74
2022/08/30 10:38:46;;;;;;;2.30;1.10;;;;;;;23.72;65.67;102197.81;5043542;28;20036;-72
2022/08/30 10:41:27;;;;;;;2.35;0.98;;;;;;;23.68;66.73;102196.09;5055041;28;20032;-72
2022/08/30 10:44:06;;;;;;;4.57;1.33;;;;;;;23.86;67.72;102195.81;5037596;28;20037;-72
2022/08/30 10:46:39;;;;;;;4.32;1.65;;;;;;;23.83;68.46;102195.84;5061901;28;20020;-72
2022/08/30 10:49:13;;;;;;;1.70;0.90;;;;;;;23.88;67.10;102199.38;5062877;28;20017;-73
2022/08/30 10:51:46;;;;;;;3.30;1.23;;;;;;;23.98;62.81;102192.00;5034303;28;20026;-73
2022/08/30 10:54:39;;;;;;;2.60;1.30;;;;;;;24.21;66.06;102196.09;5055124;28;20100;-73
2022/08/30 10:57:05;;;;;;;2.55;1.30;;;;;;;24.33;66.80;102200.34;5059094;28;20024;-74
2022/08/30 10:59:32;;;;;;;4.80;1.33;;;;;;;24.44;66.55;102198.31;5072537;28;20028;-74
2022/08/30 11:02:30;;;;;;;1.73;1.30;;;;;;;24.63;69.13;102201.56;5052564;28;20455;-73
2022/08/30 11:05:22;;;;;;;4.00;1.30;;;;;;;24.72;62.96;102189.72;5034040;28;20465;-74
2022/08/30 11:08:15;;;;;;;5.32;1.13;;;;;;;24.91;60.39;102196.47;5032691;28;20533;-74
2022/08/30 11:11:02;;;;;;;6.20;1.02;;;;;;;24.84;62.81;102192.16;5042125;28;20404;-74
2022/08/30 11:13:31;;;;;;;3.92;1.10;;;;;;;24.89;62.38;102197.44;5040675;28;20022;-74
2022/08/30 11:16:00;;;;;;;3.97;1.23;;;;;;;25.10;60.93;102195.19;5041003;28;20060;-74
2022/08/30 11:18:29;;;;;;;4.75;1.10;;;;;;;25.30;57.91;102197.41;5047307;28;20028;-73
2022/08/30 11:21:37;;;;;;;2.85;1.00;;;;;;;25.05;54.70;102192.59;5040835;28;20029;-74
2022/08/30 11:24:20;;;;;;;3.63;1.15;;;;;;;25.04;57.29;102204.28;5036731;28;20061;-77
2022/08/30 11:26:45;;;;;;;5.00;1.30;;;;;;;25.38;57.99;102190.97;5049906;28;20029;-75
2022/08/30 11:29:55;;;;;;;3.70;1.08;;;;;;;25.44;56.59;102203.41;5046242;28;20030;-75
2022/08/30 11:32:42;;;;;;;5.32;1.38;;;;;;;25.96;57.42;102203.00;5045515;28;20044;-76